Terminal Aerodrome Forecast
Issued by NWS Sioux Falls, SD

Home | Current Version | Previous Version | Graphics & Text | Print | Product List | Glossary On
Versions: 1 2 3 4 5 6 7 8 9 10 11 12 13 14 15 16 17 18 19 20 21 22 23 24 25 26
000
FTUS43 KFSD 261100
TAFFSD
TAF
KFSD 261131Z 2612/2712 08006KT P6SM BKN015 BKN130
      TEMPO 2612/2615 VRB20KT 5SM TSRA FEW015 SCT070CB BKN110
     FM261500 VRB05KT P6SM VCSH BKN100
     FM261900 28009KT P6SM FEW040
     FM270200 31007KT P6SM SKC=

USA.gov is the U.S. government's official web portal to all federal, state and local government web resources and services.